Betzdorf-Kirchen Airport


Codes: EDKI/
Name: Betzdorf-Kirchen Airport
City: Betzdorf
Country: Germany
Elevation: 1125 ft.

Photos at Betzdorf-Kirchen Airport


   Photos courtesy of SpottingLog. You can add your own sightings and photos by signing up for a free trial today.



No photos found.

Weather at Betzdorf-Kirchen Airport


Time (UTC)DescriptionTempratureWindCloud coverageVisibilityPressureHumidity
23-May-2024 21:00Broken Clouds15°C2 mph, N74%10000m1017hPa88%
24-May-2024 00:00Broken Clouds13°C2 mph, NE83%10000m1017hPa92%
24-May-2024 03:00Overcast Clouds10°C2 mph, E100%10000m1018hPa95%
24-May-2024 06:00Light Rain12°C0 mph, NE100%7187m1018hPa96%
24-May-2024 09:00Moderate Rain12°C2 mph, NW100%10000m1018hPa99%
24-May-2024 12:00Moderate Rain12°C0 mph, NW100%10000m1018hPa98%
24-May-2024 15:00Light Rain13°C4 mph, W100%10000m1017hPa98%
24-May-2024 18:00Light Rain13°C2 mph, W96%10000m1017hPa98%
24-May-2024 21:00Overcast Clouds11°C2 mph, SW88%10000m1017hPa100%
25-May-2024 00:00Overcast Clouds10°C2 mph, S87%10000m1018hPa98%
25-May-2024 03:00Scattered Clouds9°C2 mph, SE39%10000m1018hPa98%
25-May-2024 06:00Scattered Clouds12°C2 mph, SW27%10000m1018hPa95%
25-May-2024 09:00Overcast Clouds17°C4 mph, SW94%10000m1018hPa69%
25-May-2024 12:00Light Rain20°C7 mph, W89%10000m1017hPa52%
25-May-2024 15:00Light Rain19°C4 mph, W68%10000m1016hPa61%
25-May-2024 18:00Light Rain16°C2 mph, W57%10000m1017hPa89%
25-May-2024 21:00Light Rain12°C0 mph, NE42%10000m1018hPa93%
26-May-2024 00:00Scattered Clouds11°C2 mph, E29%10000m1018hPa95%
26-May-2024 03:00Overcast Clouds11°C2 mph, SE100%10000m1018hPa95%
26-May-2024 06:00Overcast Clouds14°C2 mph, SE94%10000m1018hPa91%
26-May-2024 09:00Broken Clouds19°C7 mph, S69%10000m1018hPa65%
26-May-2024 12:00Light Rain21°C7 mph, SW84%10000m1017hPa48%
26-May-2024 15:00Overcast Clouds21°C7 mph, SW98%10000m1017hPa52%
26-May-2024 18:00Light Rain16°C9 mph, S96%10000m1018hPa89%
26-May-2024 21:00Overcast Clouds13°C4 mph, SW100%10000m1019hPa98%
27-May-2024 00:00Overcast Clouds12°C4 mph, S100%10000m1019hPa98%
27-May-2024 03:00Overcast Clouds11°C4 mph, SE100%10000m1019hPa98%
27-May-2024 06:00Overcast Clouds14°C2 mph, S100%10000m1018hPa92%
27-May-2024 09:00Light Rain17°C7 mph, SW100%10000m1018hPa73%
27-May-2024 12:00Light Rain16°C4 mph, S100%10000m1018hPa86%
27-May-2024 15:00Light Rain17°C7 mph, S100%10000m1016hPa82%
27-May-2024 18:00Light Rain14°C7 mph, SW100%10000m1016hPa91%
27-May-2024 21:00Light Rain12°C4 mph, W100%10000m1017hPa98%
28-May-2024 00:00Light Rain11°C7 mph, SW100%10000m1018hPa97%
28-May-2024 03:00Light Rain10°C4 mph, W100%7699m1018hPa99%
28-May-2024 06:00Light Rain11°C4 mph, W88%10000m1019hPa95%
28-May-2024 09:00Light Rain13°C4 mph, W54%9375m1019hPa86%
28-May-2024 12:00Light Rain14°C7 mph, W48%10000m1018hPa77%
28-May-2024 15:00Light Rain15°C7 mph, SW39%10000m1017hPa78%
28-May-2024 18:00Light Rain13°C7 mph, SW38%10000m1017hPa94%